Wardell, Virginia
Current Conditions -  °F | °C
As of 5:15 PM on Wednesday 28 Jan 2015 (Local Time) from KJFZ Reporting Station
Clear Clear  
Wind Chill: 33°   Ceiling: Unl
Heat Index: 33°   Visibility: 10mi
Dew Point: 17°   Wind: 3mph
Humidity: 50%   Direction: 210°SSW
Pressure: 30.21"   Gusts: NA
Location:  37.0714°N, 81.7762°W
Report Text: KJFZ 282215Z AUTO 21003KT 10SM CLR 01/M09 A3021 RMK AO2 T00081086
Loading
Personal Weather Stations






























Interactive Weather Map New forecast layout! Learn more

10-Day Weather Forecast

Advertisements
Track Severe Weather on mobile